Terminal Aerodrome Forecast
Issued by NWS

Home | Current Version | Previous Version | Text Only | Print | Product List | Glossary On
Versions: 1 2 3 4 5 6 7 8 9 10 11 12
191
FTUS46 KMTR 240539
TAFSJC
TAF
KSJC 240539Z 2406/2506 30008KT P6SM FEW008
     FM241100 VRB04KT P6SM BKN010
     FM241600 29003KT P6SM FEW015 SCT150
     FM242000 30012KT P6SM BKN150
     FM250500 30006KT P6SM SKC=

USA.gov is the U.S. government's official web portal to all federal, state and local government web resources and services.